sensor_id;sensor_type;location;lat;lon;timestamp;P1;durP1;ratioP1;P2;durP2;ratioP2
2810;SDS011;1413;52.440;13.506;2023-02-28T00:00:03;10.05;;;3.50;;
2810;SDS011;1413;52.440;13.506;2023-02-28T00:02:35;6.43;;;2.30;;
2810;SDS011;1413;52.440;13.506;2023-02-28T00:05:03;6.18;;;2.50;;
2810;SDS011;1413;52.440;13.506;2023-02-28T00:07:31;7.07;;;3.00;;
2810;SDS011;1413;52.440;13.506;2023-02-28T00:09:58;7.13;;;2.70;;
2810;SDS011;1413;52.440;13.506;2023-02-28T00:12:27;8.68;;;3.00;;
2810;SDS011;1413;52.440;13.506;2023-02-28T00:14:55;5.60;;;2.20;;
2810;SDS011;1413;52.440;13.506;2023-02-28T00:17:22;6.82;;;3.10;;
2810;SDS011;1413;52.440;13.506;2023-02-28T00:19:50;9.35;;;2.80;;
2810;SDS011;1413;52.440;13.506;2023-02-28T00:22:19;7.22;;;2.45;;
2810;SDS011;1413;52.440;13.506;2023-02-28T00:24:47;7.65;;;2.95;;
2810;SDS011;1413;52.440;13.506;2023-02-28T00:27:14;8.85;;;3.00;;
2810;SDS011;1413;52.440;13.506;2023-02-28T00:29:43;7.95;;;2.42;;
2810;SDS011;1413;52.440;13.506;2023-02-28T00:32:11;5.95;;;2.50;;
2810;SDS011;1413;52.440;13.506;2023-02-28T00:34:38;6.40;;;2.53;;
2810;SDS011;1413;52.440;13.506;2023-02-28T00:37:06;7.28;;;2.80;;
2810;SDS011;1413;52.440;13.506;2023-02-28T00:39:34;5.07;;;2.25;;
2810;SDS011;1413;52.440;13.506;2023-02-28T00:42:03;8.70;;;2.80;;
2810;SDS011;1413;52.440;13.506;2023-02-28T00:44:30;7.68;;;2.63;;
2810;SDS011;1413;52.440;13.506;2023-02-28T00:47:00;7.18;;;2.88;;
2810;SDS011;1413;52.440;13.506;2023-02-28T00:49:27;6.40;;;2.50;;
2810;SDS011;1413;52.440;13.506;2023-02-28T00:51:55;6.20;;;2.10;;
2810;SDS011;1413;52.440;13.506;2023-02-28T00:54:23;7.63;;;2.30;;
2810;SDS011;1413;52.440;13.506;2023-02-28T00:56:51;8.88;;;2.97;;
2810;SDS011;1413;52.440;13.506;2023-02-28T00:59:18;6.00;;;2.70;;
2810;SDS011;1413;52.440;13.506;2023-02-28T01:01:46;5.85;;;2.80;;
2810;SDS011;1413;52.440;13.506;2023-02-28T01:04:15;6.50;;;2.80;;
2810;SDS011;1413;52.440;13.506;2023-02-28T01:06:43;5.90;;;2.47;;
2810;SDS011;1413;52.440;13.506;2023-02-28T01:09:11;6.22;;;2.50;;
2810;SDS011;1413;52.440;13.506;2023-02-28T01:11:38;6.65;;;2.83;;
2810;SDS011;1413;52.440;13.506;2023-02-28T01:14:08;6.80;;;2.58;;
2810;SDS011;1413;52.440;13.506;2023-02-28T01:16:35;8.02;;;2.72;;
2810;SDS011;1413;52.440;13.506;2023-02-28T01:19:03;8.80;;;3.08;;
2810;SDS011;1413;52.440;13.506;2023-02-28T01:21:32;7.30;;;3.05;;
2810;SDS011;1413;52.440;13.506;2023-02-28T01:24:01;6.07;;;2.80;;
2810;SDS011;1413;52.440;13.506;2023-02-28T01:26:29;6.82;;;3.17;;
2810;SDS011;1413;52.440;13.506;2023-02-28T01:28:56;6.40;;;2.58;;
2810;SDS011;1413;52.440;13.506;2023-02-28T01:31:24;7.65;;;3.20;;
2810;SDS011;1413;52.440;13.506;2023-02-28T01:33:52;6.18;;;2.88;;
2810;SDS011;1413;52.440;13.506;2023-02-28T01:36:20;8.85;;;3.38;;
2810;SDS011;1413;52.440;13.506;2023-02-28T01:38:50;7.43;;;2.63;;
2810;SDS011;1413;52.440;13.506;2023-02-28T01:41:18;8.88;;;2.78;;
2810;SDS011;1413;52.440;13.506;2023-02-28T01:43:54;8.07;;;2.58;;
2810;SDS011;1413;52.440;13.506;2023-02-28T01:46:21;7.95;;;2.92;;
2810;SDS011;1413;52.440;13.506;2023-02-28T01:48:50;7.78;;;3.08;;
2810;SDS011;1413;52.440;13.506;2023-02-28T01:51:19;6.95;;;2.17;;
2810;SDS011;1413;52.440;13.506;2023-02-28T01:53:51;5.88;;;2.78;;
2810;SDS011;1413;52.440;13.506;2023-02-28T01:56:23;7.93;;;3.53;;
2810;SDS011;1413;52.440;13.506;2023-02-28T01:58:52;7.50;;;3.22;;
2810;SDS011;1413;52.440;13.506;2023-02-28T02:01:20;9.55;;;3.03;;
2810;SDS011;1413;52.440;13.506;2023-02-28T02:03:48;7.55;;;3.15;;
2810;SDS011;1413;52.440;13.506;2023-02-28T02:06:21;8.70;;;3.75;;
2810;SDS011;1413;52.440;13.506;2023-02-28T02:08:50;7.45;;;2.67;;
2810;SDS011;1413;52.440;13.506;2023-02-28T02:11:20;7.80;;;3.13;;
2810;SDS011;1413;52.440;13.506;2023-02-28T02:13:52;7.90;;;3.20;;
2810;SDS011;1413;52.440;13.506;2023-02-28T02:16:34;7.95;;;3.28;;
2810;SDS011;1413;52.440;13.506;2023-02-28T02:19:08;7.68;;;3.28;;
2810;SDS011;1413;52.440;13.506;2023-02-28T02:21:47;9.27;;;3.17;;
2810;SDS011;1413;52.440;13.506;2023-02-28T02:32:46;9.25;;;2.90;;
2810;SDS011;1413;52.440;13.506;2023-02-28T02:35:17;9.25;;;3.20;;
2810;SDS011;1413;52.440;13.506;2023-02-28T02:37:50;7.20;;;3.17;;
2810;SDS011;1413;52.440;13.506;2023-02-28T02:40:20;6.95;;;3.10;;
2810;SDS011;1413;52.440;13.506;2023-02-28T02:42:50;9.02;;;3.15;;
2810;SDS011;1413;52.440;13.506;2023-02-28T02:45:20;7.07;;;2.83;;
2810;SDS011;1413;52.440;13.506;2023-02-28T02:47:50;9.77;;;3.25;;
2810;SDS011;1413;52.440;13.506;2023-02-28T02:50:21;6.95;;;2.70;;
2810;SDS011;1413;52.440;13.506;2023-02-28T02:52:51;8.15;;;2.50;;
2810;SDS011;1413;52.440;13.506;2023-02-28T02:55:19;7.75;;;3.35;;
2810;SDS011;1413;52.440;13.506;2023-02-28T02:57:48;7.35;;;3.05;;
2810;SDS011;1413;52.440;13.506;2023-02-28T03:00:17;8.50;;;2.88;;
2810;SDS011;1413;52.440;13.506;2023-02-28T03:02:47;9.02;;;3.08;;
2810;SDS011;1413;52.440;13.506;2023-02-28T03:05:16;6.38;;;3.20;;
2810;SDS011;1413;52.440;13.506;2023-02-28T03:07:45;8.10;;;3.38;;
2810;SDS011;1413;52.440;13.506;2023-02-28T03:10:27;10.10;;;2.88;;
2810;SDS011;1413;52.440;13.506;2023-02-28T03:12:57;6.90;;;2.85;;
2810;SDS011;1413;52.440;13.506;2023-02-28T03:15:26;7.13;;;3.05;;
2810;SDS011;1413;52.440;13.506;2023-02-28T03:17:58;8.52;;;3.33;;
2810;SDS011;1413;52.440;13.506;2023-02-28T03:20:27;7.95;;;3.60;;
2810;SDS011;1413;52.440;13.506;2023-02-28T03:23:03;5.63;;;2.60;;
2810;SDS011;1413;52.440;13.506;2023-02-28T03:25:36;8.40;;;3.38;;
2810;SDS011;1413;52.440;13.506;2023-02-28T03:28:08;10.20;;;3.50;;
2810;SDS011;1413;52.440;13.506;2023-02-28T03:30:39;6.30;;;2.90;;
2810;SDS011;1413;52.440;13.506;2023-02-28T03:33:09;8.75;;;3.40;;
2810;SDS011;1413;52.440;13.506;2023-02-28T03:35:39;9.35;;;3.20;;
2810;SDS011;1413;52.440;13.506;2023-02-28T03:38:12;9.98;;;3.15;;
2810;SDS011;1413;52.440;13.506;2023-02-28T03:40:43;7.82;;;3.40;;
2810;SDS011;1413;52.440;13.506;2023-02-28T03:43:12;7.72;;;3.05;;
2810;SDS011;1413;52.440;13.506;2023-02-28T03:45:41;8.30;;;3.63;;
2810;SDS011;1413;52.440;13.506;2023-02-28T03:48:12;8.88;;;3.30;;
2810;SDS011;1413;52.440;13.506;2023-02-28T03:50:41;7.72;;;3.25;;
2810;SDS011;1413;52.440;13.506;2023-02-28T03:53:14;8.50;;;3.13;;
2810;SDS011;1413;52.440;13.506;2023-02-28T03:55:44;7.85;;;2.97;;
2810;SDS011;1413;52.440;13.506;2023-02-28T03:58:14;8.02;;;3.22;;
2810;SDS011;1413;52.440;13.506;2023-02-28T04:00:43;8.68;;;3.33;;
2810;SDS011;1413;52.440;13.506;2023-02-28T04:03:12;7.20;;;3.60;;
2810;SDS011;1413;52.440;13.506;2023-02-28T04:05:48;7.20;;;3.28;;
2810;SDS011;1413;52.440;13.506;2023-02-28T04:08:17;8.95;;;3.72;;
2810;SDS011;1413;52.440;13.506;2023-02-28T04:10:48;11.77;;;3.58;;
2810;SDS011;1413;52.440;13.506;2023-02-28T04:13:17;6.53;;;3.47;;
2810;SDS011;1413;52.440;13.506;2023-02-28T04:15:44;10.25;;;4.22;;
2810;SDS011;1413;52.440;13.506;2023-02-28T04:18:12;8.77;;;3.75;;
2810;SDS011;1413;52.440;13.506;2023-02-28T04:20:39;8.00;;;3.80;;
2810;SDS011;1413;52.440;13.506;2023-02-28T04:23:07;7.18;;;3.53;;
2810;SDS011;1413;52.440;13.506;2023-02-28T04:25:34;7.60;;;3.15;;
2810;SDS011;1413;52.440;13.506;2023-02-28T04:28:03;7.03;;;3.13;;
2810;SDS011;1413;52.440;13.506;2023-02-28T04:30:31;7.40;;;3.25;;
2810;SDS011;1413;52.440;13.506;2023-02-28T04:33:00;7.78;;;3.55;;
2810;SDS011;1413;52.440;13.506;2023-02-28T04:35:28;7.57;;;3.58;;
2810;SDS011;1413;52.440;13.506;2023-02-28T04:37:55;8.32;;;3.33;;
2810;SDS011;1413;52.440;13.506;2023-02-28T04:40:23;7.57;;;2.92;;
2810;SDS011;1413;52.440;13.506;2023-02-28T04:42:50;8.95;;;3.50;;
2810;SDS011;1413;52.440;13.506;2023-02-28T04:45:19;8.55;;;3.58;;
2810;SDS011;1413;52.440;13.506;2023-02-28T04:47:47;9.68;;;3.88;;
2810;SDS011;1413;52.440;13.506;2023-02-28T04:50:14;10.82;;;4.15;;
2810;SDS011;1413;52.440;13.506;2023-02-28T04:52:42;9.50;;;4.03;;
2810;SDS011;1413;52.440;13.506;2023-02-28T04:55:09;11.05;;;3.95;;
2810;SDS011;1413;52.440;13.506;2023-02-28T04:57:37;10.27;;;3.83;;
2810;SDS011;1413;52.440;13.506;2023-02-28T05:00:05;8.52;;;3.50;;
2810;SDS011;1413;52.440;13.506;2023-02-28T05:02:39;8.68;;;4.15;;
2810;SDS011;1413;52.440;13.506;2023-02-28T05:05:06;10.00;;;4.07;;
2810;SDS011;1413;52.440;13.506;2023-02-28T05:07:34;9.63;;;3.92;;
2810;SDS011;1413;52.440;13.506;2023-02-28T05:10:01;8.63;;;3.75;;
2810;SDS011;1413;52.440;13.506;2023-02-28T05:12:31;11.38;;;3.78;;
2810;SDS011;1413;52.440;13.506;2023-02-28T05:14:58;7.22;;;3.47;;
2810;SDS011;1413;52.440;13.506;2023-02-28T05:17:27;10.73;;;3.78;;
2810;SDS011;1413;52.440;13.506;2023-02-28T05:19:56;8.27;;;3.70;;
2810;SDS011;1413;52.440;13.506;2023-02-28T05:22:40;7.47;;;3.38;;
2810;SDS011;1413;52.440;13.506;2023-02-28T05:25:08;9.07;;;3.83;;
2810;SDS011;1413;52.440;13.506;2023-02-28T05:27:36;10.57;;;3.90;;
2810;SDS011;1413;52.440;13.506;2023-02-28T05:30:03;9.05;;;3.85;;
2810;SDS011;1413;52.440;13.506;2023-02-28T05:32:32;9.30;;;3.85;;
2810;SDS011;1413;52.440;13.506;2023-02-28T05:35:01;9.77;;;4.25;;
2810;SDS011;1413;52.440;13.506;2023-02-28T05:37:28;9.65;;;3.83;;
2810;SDS011;1413;52.440;13.506;2023-02-28T05:39:56;10.70;;;4.25;;
2810;SDS011;1413;52.440;13.506;2023-02-28T05:42:23;9.82;;;3.83;;
2810;SDS011;1413;52.440;13.506;2023-02-28T05:44:51;9.50;;;3.55;;
2810;SDS011;1413;52.440;13.506;2023-02-28T05:47:18;8.63;;;4.03;;
2810;SDS011;1413;52.440;13.506;2023-02-28T05:49:46;9.95;;;4.00;;
2810;SDS011;1413;52.440;13.506;2023-02-28T05:52:15;9.35;;;3.90;;
2810;SDS011;1413;52.440;13.506;2023-02-28T05:54:42;11.23;;;4.13;;
2810;SDS011;1413;52.440;13.506;2023-02-28T05:57:10;9.18;;;4.15;;
2810;SDS011;1413;52.440;13.506;2023-02-28T05:59:49;8.25;;;3.63;;
2810;SDS011;1413;52.440;13.506;2023-02-28T06:02:17;8.35;;;3.88;;
2810;SDS011;1413;52.440;13.506;2023-02-28T06:04:45;10.48;;;4.50;;
2810;SDS011;1413;52.440;13.506;2023-02-28T06:07:12;9.65;;;4.05;;
2810;SDS011;1413;52.440;13.506;2023-02-28T06:09:41;10.43;;;4.18;;
2810;SDS011;1413;52.440;13.506;2023-02-28T06:12:09;9.07;;;3.72;;
2810;SDS011;1413;52.440;13.506;2023-02-28T06:14:37;12.60;;;4.32;;
2810;SDS011;1413;52.440;13.506;2023-02-28T06:17:04;11.35;;;3.83;;
2810;SDS011;1413;52.440;13.506;2023-02-28T06:19:32;11.65;;;4.05;;
2810;SDS011;1413;52.440;13.506;2023-02-28T06:22:00;10.48;;;3.80;;
2810;SDS011;1413;52.440;13.506;2023-02-28T06:24:27;9.48;;;3.95;;
2810;SDS011;1413;52.440;13.506;2023-02-28T06:26:59;8.98;;;3.70;;
2810;SDS011;1413;52.440;13.506;2023-02-28T06:29:31;10.02;;;4.13;;
2810;SDS011;1413;52.440;13.506;2023-02-28T06:31:58;8.30;;;3.78;;
2810;SDS011;1413;52.440;13.506;2023-02-28T06:34:26;10.82;;;4.15;;
2810;SDS011;1413;52.440;13.506;2023-02-28T06:36:54;10.73;;;4.25;;
2810;SDS011;1413;52.440;13.506;2023-02-28T06:39:21;15.30;;;4.95;;
2810;SDS011;1413;52.440;13.506;2023-02-28T06:41:49;10.50;;;4.38;;
2810;SDS011;1413;52.440;13.506;2023-02-28T06:44:23;11.52;;;4.35;;
2810;SDS011;1413;52.440;13.506;2023-02-28T06:46:50;12.35;;;4.75;;
2810;SDS011;1413;52.440;13.506;2023-02-28T06:49:18;10.55;;;4.38;;
2810;SDS011;1413;52.440;13.506;2023-02-28T06:51:45;9.38;;;4.50;;
2810;SDS011;1413;52.440;13.506;2023-02-28T06:54:13;13.90;;;4.95;;
2810;SDS011;1413;52.440;13.506;2023-02-28T06:56:41;8.90;;;4.45;;
2810;SDS011;1413;52.440;13.506;2023-02-28T06:59:08;11.95;;;4.50;;
2810;SDS011;1413;52.440;13.506;2023-02-28T07:01:37;12.57;;;4.45;;
2810;SDS011;1413;52.440;13.506;2023-02-28T07:04:05;8.80;;;4.72;;
2810;SDS011;1413;52.440;13.506;2023-02-28T07:06:33;11.68;;;5.50;;
2810;SDS011;1413;52.440;13.506;2023-02-28T07:09:00;11.73;;;5.05;;
2810;SDS011;1413;52.440;13.506;2023-02-28T07:11:29;13.40;;;5.13;;
2810;SDS011;1413;52.440;13.506;2023-02-28T07:13:57;14.57;;;4.95;;
2810;SDS011;1413;52.440;13.506;2023-02-28T07:16:24;12.63;;;5.53;;
2810;SDS011;1413;52.440;13.506;2023-02-28T07:18:54;9.93;;;5.10;;
2810;SDS011;1413;52.440;13.506;2023-02-28T07:21:22;14.00;;;5.43;;
2810;SDS011;1413;52.440;13.506;2023-02-28T07:23:49;14.63;;;5.43;;
2810;SDS011;1413;52.440;13.506;2023-02-28T07:26:18;17.02;;;5.30;;
2810;SDS011;1413;52.440;13.506;2023-02-28T07:28:47;10.90;;;5.28;;
2810;SDS011;1413;52.440;13.506;2023-02-28T07:31:15;12.43;;;5.13;;
2810;SDS011;1413;52.440;13.506;2023-02-28T07:33:43;13.80;;;5.22;;
2810;SDS011;1413;52.440;13.506;2023-02-28T07:36:12;12.50;;;4.88;;
2810;SDS011;1413;52.440;13.506;2023-02-28T07:38:41;11.85;;;4.78;;
2810;SDS011;1413;52.440;13.506;2023-02-28T07:41:13;12.05;;;4.68;;
2810;SDS011;1413;52.440;13.506;2023-02-28T07:43:40;15.48;;;4.65;;
2810;SDS011;1413;52.440;13.506;2023-02-28T07:46:09;8.15;;;4.13;;
2810;SDS011;1413;52.440;13.506;2023-02-28T07:48:37;10.98;;;4.07;;
2810;SDS011;1413;52.440;13.506;2023-02-28T07:51:04;10.57;;;4.22;;
2810;SDS011;1413;52.440;13.506;2023-02-28T07:53:34;10.90;;;4.88;;
2810;SDS011;1413;52.440;13.506;2023-02-28T07:56:01;9.63;;;3.85;;
2810;SDS011;1413;52.440;13.506;2023-02-28T07:58:29;11.63;;;4.15;;
2810;SDS011;1413;52.440;13.506;2023-02-28T08:00:57;11.93;;;4.70;;
2810;SDS011;1413;52.440;13.506;2023-02-28T08:03:31;11.60;;;4.15;;
2810;SDS011;1413;52.440;13.506;2023-02-28T08:05:59;9.90;;;4.32;;
2810;SDS011;1413;52.440;13.506;2023-02-28T08:08:26;8.65;;;4.22;;
2810;SDS011;1413;52.440;13.506;2023-02-28T08:10:59;9.55;;;3.55;;
2810;SDS011;1413;52.440;13.506;2023-02-28T08:13:27;11.00;;;4.72;;
2810;SDS011;1413;52.440;13.506;2023-02-28T08:15:55;8.88;;;4.07;;
2810;SDS011;1413;52.440;13.506;2023-02-28T08:18:23;8.70;;;4.22;;
2810;SDS011;1413;52.440;13.506;2023-02-28T08:20:50;14.80;;;4.28;;
2810;SDS011;1413;52.440;13.506;2023-02-28T08:23:18;10.35;;;4.00;;
2810;SDS011;1413;52.440;13.506;2023-02-28T08:25:52;9.98;;;3.80;;
2810;SDS011;1413;52.440;13.506;2023-02-28T08:28:21;9.82;;;3.70;;
2810;SDS011;1413;52.440;13.506;2023-02-28T08:30:52;8.63;;;3.33;;
2810;SDS011;1413;52.440;13.506;2023-02-28T08:33:19;8.52;;;3.47;;
2810;SDS011;1413;52.440;13.506;2023-02-28T08:35:47;8.35;;;3.65;;
2810;SDS011;1413;52.440;13.506;2023-02-28T08:38:15;9.02;;;3.97;;
2810;SDS011;1413;52.440;13.506;2023-02-28T08:40:42;6.97;;;3.08;;
2810;SDS011;1413;52.440;13.506;2023-02-28T08:43:10;10.02;;;3.90;;
2810;SDS011;1413;52.440;13.506;2023-02-28T08:45:39;8.68;;;3.55;;
2810;SDS011;1413;52.440;13.506;2023-02-28T08:48:06;9.63;;;3.80;;
2810;SDS011;1413;52.440;13.506;2023-02-28T08:50:34;9.38;;;3.70;;
2810;SDS011;1413;52.440;13.506;2023-02-28T08:53:01;6.72;;;2.38;;
2810;SDS011;1413;52.440;13.506;2023-02-28T08:55:29;9.07;;;2.28;;
2810;SDS011;1413;52.440;13.506;2023-02-28T08:57:56;6.07;;;2.13;;
2810;SDS011;1413;52.440;13.506;2023-02-28T09:00:24;5.15;;;2.13;;
2810;SDS011;1413;52.440;13.506;2023-02-28T09:02:53;7.03;;;2.20;;
2810;SDS011;1413;52.440;13.506;2023-02-28T09:05:21;5.43;;;2.25;;
2810;SDS011;1413;52.440;13.506;2023-02-28T09:07:49;4.38;;;2.00;;
2810;SDS011;1413;52.440;13.506;2023-02-28T09:10:16;6.40;;;2.42;;
2810;SDS011;1413;52.440;13.506;2023-02-28T09:12:44;5.15;;;2.15;;
2810;SDS011;1413;52.440;13.506;2023-02-28T09:15:13;6.85;;;2.10;;
2810;SDS011;1413;52.440;13.506;2023-02-28T09:17:40;5.55;;;2.00;;
2810;SDS011;1413;52.440;13.506;2023-02-28T09:22:40;6.60;;;2.15;;
2810;SDS011;1413;52.440;13.506;2023-02-28T09:25:08;6.25;;;2.00;;
2810;SDS011;1413;52.440;13.506;2023-02-28T09:27:35;4.68;;;1.58;;
2810;SDS011;1413;52.440;13.506;2023-02-28T09:30:03;5.45;;;1.52;;
2810;SDS011;1413;52.440;13.506;2023-02-28T09:32:31;4.88;;;1.85;;
2810;SDS011;1413;52.440;13.506;2023-02-28T09:34:59;4.80;;;1.73;;
2810;SDS011;1413;52.440;13.506;2023-02-28T09:37:26;4.85;;;1.92;;
2810;SDS011;1413;52.440;13.506;2023-02-28T09:39:56;5.25;;;1.77;;
2810;SDS011;1413;52.440;13.506;2023-02-28T09:42:25;5.65;;;1.75;;
2810;SDS011;1413;52.440;13.506;2023-02-28T09:44:57;7.35;;;1.55;;
2810;SDS011;1413;52.440;13.506;2023-02-28T09:47:27;3.90;;;1.50;;
2810;SDS011;1413;52.440;13.506;2023-02-28T09:49:57;2.78;;;0.90;;
2810;SDS011;1413;52.440;13.506;2023-02-28T09:52:27;2.97;;;0.77;;
2810;SDS011;1413;52.440;13.506;2023-02-28T09:54:57;5.40;;;1.00;;
2810;SDS011;1413;52.440;13.506;2023-02-28T09:57:29;4.00;;;1.52;;
2810;SDS011;1413;52.440;13.506;2023-02-28T10:00:04;4.05;;;1.40;;
2810;SDS011;1413;52.440;13.506;2023-02-28T10:02:41;3.85;;;1.45;;
2810;SDS011;1413;52.440;13.506;2023-02-28T10:05:14;3.60;;;1.40;;
2810;SDS011;1413;52.440;13.506;2023-02-28T10:07:47;2.88;;;1.25;;
2810;SDS011;1413;52.440;13.506;2023-02-28T10:10:20;7.90;;;1.30;;
2810;SDS011;1413;52.440;13.506;2023-02-28T10:12:49;3.67;;;1.23;;
2810;SDS011;1413;52.440;13.506;2023-02-28T10:15:18;6.00;;;1.20;;
2810;SDS011;1413;52.440;13.506;2023-02-28T10:17:47;4.25;;;1.17;;
2810;SDS011;1413;52.440;13.506;2023-02-28T10:20:32;10.25;;;1.67;;
2810;SDS011;1413;52.440;13.506;2023-02-28T10:23:02;4.13;;;1.42;;
2810;SDS011;1413;52.440;13.506;2023-02-28T10:25:36;5.47;;;1.50;;
2810;SDS011;1413;52.440;13.506;2023-02-28T10:28:14;4.95;;;1.27;;
2810;SDS011;1413;52.440;13.506;2023-02-28T10:30:42;5.18;;;1.63;;
2810;SDS011;1413;52.440;13.506;2023-02-28T10:33:17;6.15;;;1.48;;
2810;SDS011;1413;52.440;13.506;2023-02-28T10:35:46;3.85;;;1.40;;
2810;SDS011;1413;52.440;13.506;2023-02-28T10:38:15;3.95;;;1.27;;
2810;SDS011;1413;52.440;13.506;2023-02-28T10:40:45;3.47;;;1.17;;
2810;SDS011;1413;52.440;13.506;2023-02-28T10:43:18;3.58;;;1.48;;
2810;SDS011;1413;52.440;13.506;2023-02-28T10:45:52;4.78;;;1.52;;
2810;SDS011;1413;52.440;13.506;2023-02-28T10:48:27;3.47;;;1.30;;
2810;SDS011;1413;52.440;13.506;2023-02-28T10:50:56;8.70;;;1.50;;
2810;SDS011;1413;52.440;13.506;2023-02-28T10:53:30;4.47;;;1.50;;
2810;SDS011;1413;52.440;13.506;2023-02-28T10:56:14;4.35;;;1.45;;
2810;SDS011;1413;52.440;13.506;2023-02-28T10:58:46;7.20;;;2.33;;
2810;SDS011;1413;52.440;13.506;2023-02-28T11:01:15;6.20;;;1.63;;
2810;SDS011;1413;52.440;13.506;2023-02-28T11:03:44;3.75;;;1.38;;
2810;SDS011;1413;52.440;13.506;2023-02-28T11:06:18;3.90;;;1.35;;
2810;SDS011;1413;52.440;13.506;2023-02-28T11:08:47;4.68;;;1.42;;
2810;SDS011;1413;52.440;13.506;2023-02-28T11:11:17;4.63;;;1.52;;
2810;SDS011;1413;52.440;13.506;2023-02-28T11:13:45;4.18;;;1.58;;
2810;SDS011;1413;52.440;13.506;2023-02-28T11:16:14;3.97;;;1.42;;
2810;SDS011;1413;52.440;13.506;2023-02-28T11:18:43;4.47;;;1.50;;
2810;SDS011;1413;52.440;13.506;2023-02-28T11:21:19;3.63;;;1.45;;
2810;SDS011;1413;52.440;13.506;2023-02-28T11:23:47;3.75;;;1.40;;
2810;SDS011;1413;52.440;13.506;2023-02-28T11:26:18;6.57;;;1.80;;
2810;SDS011;1413;52.440;13.506;2023-02-28T11:29:05;4.65;;;1.90;;
2810;SDS011;1413;52.440;13.506;2023-02-28T11:31:35;3.25;;;1.33;;
2810;SDS011;1413;52.440;13.506;2023-02-28T11:34:07;4.75;;;1.80;;
2810;SDS011;1413;52.440;13.506;2023-02-28T11:36:48;3.88;;;1.35;;
2810;SDS011;1413;52.440;13.506;2023-02-28T11:39:15;4.43;;;1.60;;
2810;SDS011;1413;52.440;13.506;2023-02-28T11:44:38;4.97;;;1.67;;
2810;SDS011;1413;52.440;13.506;2023-02-28T11:47:11;4.75;;;1.52;;
2810;SDS011;1413;52.440;13.506;2023-02-28T11:49:44;5.88;;;1.55;;
2810;SDS011;1413;52.440;13.506;2023-02-28T11:52:19;5.03;;;1.42;;
2810;SDS011;1413;52.440;13.506;2023-02-28T11:54:51;6.47;;;1.95;;
2810;SDS011;1413;52.440;13.506;2023-02-28T11:57:28;4.82;;;1.73;;
2810;SDS011;1413;52.440;13.506;2023-02-28T12:00:02;4.95;;;1.50;;
2810;SDS011;1413;52.440;13.506;2023-02-28T12:02:33;4.22;;;1.63;;
2810;SDS011;1413;52.440;13.506;2023-02-28T12:05:10;6.70;;;1.70;;
2810;SDS011;1413;52.440;13.506;2023-02-28T12:07:42;3.30;;;1.50;;
2810;SDS011;1413;52.440;13.506;2023-02-28T12:10:17;4.93;;;1.58;;
2810;SDS011;1413;52.440;13.506;2023-02-28T12:12:47;4.93;;;1.50;;
2810;SDS011;1413;52.440;13.506;2023-02-28T12:15:23;5.10;;;1.73;;
2810;SDS011;1413;52.440;13.506;2023-02-28T12:17:57;4.43;;;1.52;;
2810;SDS011;1413;52.440;13.506;2023-02-28T12:20:29;5.38;;;1.70;;
2810;SDS011;1413;52.440;13.506;2023-02-28T12:23:02;4.65;;;1.80;;
2810;SDS011;1413;52.440;13.506;2023-02-28T12:25:38;3.90;;;1.40;;
2810;SDS011;1413;52.440;13.506;2023-02-28T12:28:09;4.13;;;1.52;;
2810;SDS011;1413;52.440;13.506;2023-02-28T12:30:41;4.30;;;1.48;;
2810;SDS011;1413;52.440;13.506;2023-02-28T12:33:11;3.42;;;1.50;;
2810;SDS011;1413;52.440;13.506;2023-02-28T12:35:41;5.43;;;1.60;;
2810;SDS011;1413;52.440;13.506;2023-02-28T12:38:12;3.10;;;1.20;;
2810;SDS011;1413;52.440;13.506;2023-02-28T12:40:44;4.90;;;1.63;;
2810;SDS011;1413;52.440;13.506;2023-02-28T12:43:13;6.57;;;1.52;;
2810;SDS011;1413;52.440;13.506;2023-02-28T12:45:44;4.22;;;1.65;;
2810;SDS011;1413;52.440;13.506;2023-02-28T12:48:15;3.95;;;1.42;;
2810;SDS011;1413;52.440;13.506;2023-02-28T12:50:45;4.63;;;2.22;;
2810;SDS011;1413;52.440;13.506;2023-02-28T12:53:15;5.28;;;1.90;;
2810;SDS011;1413;52.440;13.506;2023-02-28T12:55:46;5.07;;;1.70;;
2810;SDS011;1413;52.440;13.506;2023-02-28T13:00:49;4.13;;;1.65;;
2810;SDS011;1413;52.440;13.506;2023-02-28T13:06:13;4.60;;;1.52;;
2810;SDS011;1413;52.440;13.506;2023-02-28T13:08:50;6.35;;;1.70;;
2810;SDS011;1413;52.440;13.506;2023-02-28T13:11:25;4.68;;;1.58;;
2810;SDS011;1413;52.440;13.506;2023-02-28T13:13:57;4.85;;;1.50;;
2810;SDS011;1413;52.440;13.506;2023-02-28T13:16:26;5.57;;;1.80;;
2810;SDS011;1413;52.440;13.506;2023-02-28T13:18:56;6.05;;;2.00;;
2810;SDS011;1413;52.440;13.506;2023-02-28T13:21:41;4.75;;;1.60;;
2810;SDS011;1413;52.440;13.506;2023-02-28T13:24:10;5.55;;;1.60;;
2810;SDS011;1413;52.440;13.506;2023-02-28T13:29:35;4.57;;;1.70;;
2810;SDS011;1413;52.440;13.506;2023-02-28T13:32:27;6.30;;;1.65;;
2810;SDS011;1413;52.440;13.506;2023-02-28T13:38:08;4.05;;;1.45;;
2810;SDS011;1413;52.440;13.506;2023-02-28T13:40:36;4.60;;;1.70;;
2810;SDS011;1413;52.440;13.506;2023-02-28T13:43:07;5.00;;;1.52;;
2810;SDS011;1413;52.440;13.506;2023-02-28T13:45:35;5.45;;;1.60;;
2810;SDS011;1413;52.440;13.506;2023-02-28T13:48:14;5.93;;;1.73;;
2810;SDS011;1413;52.440;13.506;2023-02-28T13:50:43;4.45;;;1.65;;
2810;SDS011;1413;52.440;13.506;2023-02-28T13:53:29;6.15;;;1.60;;
2810;SDS011;1413;52.440;13.506;2023-02-28T13:56:01;3.72;;;1.35;;
2810;SDS011;1413;52.440;13.506;2023-02-28T13:58:37;4.82;;;1.60;;
2810;SDS011;1413;52.440;13.506;2023-02-28T14:01:12;5.78;;;1.75;;
2810;SDS011;1413;52.440;13.506;2023-02-28T14:03:46;5.35;;;1.80;;
2810;SDS011;1413;52.440;13.506;2023-02-28T14:06:22;3.70;;;1.50;;
2810;SDS011;1413;52.440;13.506;2023-02-28T14:08:54;4.97;;;1.48;;
2810;SDS011;1413;52.440;13.506;2023-02-28T14:11:24;5.38;;;1.92;;
2810;SDS011;1413;52.440;13.506;2023-02-28T14:13:52;3.90;;;1.38;;
2810;SDS011;1413;52.440;13.506;2023-02-28T14:16:20;4.18;;;1.80;;
2810;SDS011;1413;52.440;13.506;2023-02-28T14:18:51;3.80;;;1.52;;
2810;SDS011;1413;52.440;13.506;2023-02-28T14:21:22;3.80;;;1.48;;
2810;SDS011;1413;52.440;13.506;2023-02-28T14:24:16;4.43;;;1.65;;
2810;SDS011;1413;52.440;13.506;2023-02-28T14:29:39;4.28;;;1.70;;
2810;SDS011;1413;52.440;13.506;2023-02-28T14:32:11;4.00;;;1.70;;
2810;SDS011;1413;52.440;13.506;2023-02-28T14:34:44;4.43;;;1.75;;
2810;SDS011;1413;52.440;13.506;2023-02-28T14:37:27;6.25;;;1.98;;
2810;SDS011;1413;52.440;13.506;2023-02-28T14:39:56;7.05;;;1.88;;
2810;SDS011;1413;52.440;13.506;2023-02-28T14:42:27;6.72;;;2.10;;
2810;SDS011;1413;52.440;13.506;2023-02-28T14:44:54;5.53;;;2.10;;
2810;SDS011;1413;52.440;13.506;2023-02-28T14:47:22;4.45;;;1.80;;
2810;SDS011;1413;52.440;13.506;2023-02-28T14:49:52;4.63;;;1.90;;
2810;SDS011;1413;52.440;13.506;2023-02-28T14:52:21;7.07;;;2.10;;
2810;SDS011;1413;52.440;13.506;2023-02-28T14:54:51;4.75;;;2.05;;
2810;SDS011;1413;52.440;13.506;2023-02-28T14:57:23;4.70;;;1.90;;
2810;SDS011;1413;52.440;13.506;2023-02-28T14:59:58;6.97;;;2.42;;
2810;SDS011;1413;52.440;13.506;2023-02-28T15:02:26;5.32;;;2.33;;
2810;SDS011;1413;52.440;13.506;2023-02-28T15:04:59;4.45;;;2.00;;
2810;SDS011;1413;52.440;13.506;2023-02-28T15:07:27;6.25;;;2.30;;
2810;SDS011;1413;52.440;13.506;2023-02-28T15:10:12;4.65;;;1.75;;
2810;SDS011;1413;52.440;13.506;2023-02-28T15:12:40;5.82;;;2.35;;
2810;SDS011;1413;52.440;13.506;2023-02-28T15:15:14;4.97;;;2.33;;
2810;SDS011;1413;52.440;13.506;2023-02-28T15:17:42;4.55;;;1.80;;
2810;SDS011;1413;52.440;13.506;2023-02-28T15:20:13;5.43;;;2.20;;
2810;SDS011;1413;52.440;13.506;2023-02-28T15:22:42;5.20;;;2.40;;
2810;SDS011;1413;52.440;13.506;2023-02-28T15:25:10;5.82;;;2.00;;
2810;SDS011;1413;52.440;13.506;2023-02-28T15:30:08;5.22;;;1.90;;
2810;SDS011;1413;52.440;13.506;2023-02-28T15:32:40;5.82;;;2.28;;
2810;SDS011;1413;52.440;13.506;2023-02-28T15:35:20;6.90;;;2.20;;
2810;SDS011;1413;52.440;13.506;2023-02-28T15:37:48;5.18;;;2.25;;
2810;SDS011;1413;52.440;13.506;2023-02-28T15:40:22;4.57;;;2.05;;
2810;SDS011;1413;52.440;13.506;2023-02-28T15:43:02;5.95;;;2.28;;
2810;SDS011;1413;52.440;13.506;2023-02-28T15:45:38;5.20;;;1.90;;
2810;SDS011;1413;52.440;13.506;2023-02-28T15:48:13;5.15;;;2.10;;